createdAt,value
2018-03-15T00:03:02.226Z,101034.34
2018-03-15T00:06:06.355Z,101042.11
2018-03-15T00:09:10.481Z,101038.95
2018-03-15T00:12:14.250Z,101036.91
2018-03-15T00:15:19.127Z,101035.91
2018-03-15T00:18:22.510Z,101036.10
2018-03-15T00:21:25.912Z,101037.77
2018-03-15T00:24:30.051Z,101043.17
2018-03-15T00:27:33.410Z,101034.35
2018-03-15T00:30:36.795Z,101038.11
2018-03-15T00:33:41.673Z,101036.38
2018-03-15T00:36:45.034Z,101036.23
2018-03-15T00:39:48.442Z,101024.52
2018-03-15T00:42:51.808Z,101026.84
2018-03-15T00:45:55.218Z,101019.55
2018-03-15T00:48:58.574Z,101019.30
2018-03-15T00:52:01.926Z,101018.36
2018-03-15T00:55:06.059Z,101013.09
2018-03-15T00:58:10.194Z,101017.84
2018-03-15T01:01:13.549Z,101015.22
2018-03-15T01:04:16.918Z,101008.16
2018-03-15T01:07:20.266Z,101007.77
2018-03-15T01:10:23.623Z,101006.33
2018-03-15T01:13:26.971Z,100998.11
2018-03-15T01:16:31.088Z,100993.47
2018-03-15T01:19:35.207Z,100993.73
2018-03-15T01:22:39.337Z,100992.05
2018-03-15T01:25:42.683Z,100990.43
2018-03-15T01:28:46.047Z,100987.42
2018-03-15T01:31:49.464Z,100985.83
2018-03-15T01:34:52.826Z,100985.25
2018-03-15T01:37:56.949Z,100972.59
2018-03-15T01:41:00.339Z,100979.63
2018-03-15T01:44:04.456Z,100952.11
2018-03-15T01:47:08.580Z,100956.05
2018-03-15T01:50:12.729Z,100960.27
2018-03-15T01:53:16.109Z,100959.69
2018-03-15T01:56:19.500Z,100956.66
2018-03-15T01:59:22.879Z,100955.89
2018-03-15T02:02:26.996Z,100946.02
2018-03-15T02:05:31.131Z,100947.23
2018-03-15T02:08:34.482Z,100940.84
2018-03-15T02:11:37.866Z,100935.44
2018-03-15T02:14:41.213Z,100935.69
2018-03-15T02:17:45.328Z,100929.97
2018-03-15T02:20:49.461Z,100930.00
2018-03-15T02:23:52.844Z,100924.19
2018-03-15T02:26:57.093Z,100923.36
2018-03-15T02:30:00.462Z,100924.67
2018-03-15T02:33:04.661Z,100921.63
2018-03-15T02:36:09.528Z,100915.45
2018-03-15T02:39:12.886Z,100916.98
2018-03-15T02:42:16.260Z,100923.56
2018-03-15T02:45:19.616Z,100920.06
2018-03-15T02:48:23.739Z,100910.52
2018-03-15T02:51:27.866Z,100909.69
2018-03-15T02:54:31.228Z,100914.45
2018-03-15T02:57:35.341Z,100911.20
2018-03-15T03:00:39.513Z,100911.43
2018-03-15T03:03:43.018Z,100914.45
2018-03-15T03:06:46.387Z,100905.84
2018-03-15T03:09:50.515Z,100897.27
2018-03-15T03:12:53.899Z,100895.91
2018-03-15T03:15:58.042Z,100899.69
2018-03-15T03:19:01.398Z,100895.34
2018-03-15T03:22:04.746Z,100894.11
2018-03-15T03:25:08.100Z,100895.03
2018-03-15T03:28:11.471Z,100891.59
2018-03-15T03:31:14.829Z,100893.75
2018-03-15T03:34:18.188Z,100894.81
2018-03-15T03:37:21.664Z,100898.63
2018-03-15T03:40:25.017Z,100899.06
2018-03-15T03:43:29.154Z,100893.63
2018-03-15T03:46:32.506Z,100894.30
2018-03-15T03:49:35.859Z,100887.67
2018-03-15T03:52:39.218Z,100888.09
2018-03-15T03:55:43.323Z,100884.52
2018-03-15T03:58:46.698Z,100879.46
2018-03-15T04:01:50.056Z,100886.04
2018-03-15T04:04:53.400Z,100888.20
2018-03-15T04:07:57.527Z,100883.56
2018-03-15T04:11:01.693Z,100877.08
2018-03-15T04:14:05.052Z,100876.17
2018-03-15T04:17:08.407Z,100873.05
2018-03-15T04:20:11.771Z,100879.50
2018-03-15T04:23:15.206Z,100878.36
2018-03-15T04:26:18.720Z,100879.17
2018-03-15T04:29:22.073Z,100877.30
2018-03-15T04:32:25.397Z,100868.55
2018-03-15T04:35:28.744Z,100878.36
2018-03-15T04:38:32.917Z,100875.80
2018-03-15T04:41:36.392Z,100874.93
2018-03-15T04:44:39.790Z,100871.55
2018-03-15T04:47:43.914Z,100880.56
2018-03-15T04:50:47.303Z,100872.99
2018-03-15T04:53:51.547Z,100878.09
2018-03-15T04:56:54.895Z,100886.94
2018-03-15T04:59:58.254Z,100868.80
2018-03-15T05:03:01.622Z,100870.93
2018-03-15T05:06:04.982Z,100866.84
2018-03-15T05:09:08.334Z,100864.89
2018-03-15T05:12:11.720Z,100854.45
2018-03-15T05:15:15.140Z,100857.14
2018-03-15T05:18:18.528Z,100862.97
2018-03-15T05:21:21.907Z,100853.22
2018-03-15T05:24:26.038Z,100859.34
2018-03-15T05:27:29.381Z,100855.84
2018-03-15T05:30:32.734Z,100875.77
2018-03-15T05:33:36.101Z,100874.58
2018-03-15T05:36:39.453Z,100880.34
2018-03-15T05:39:42.810Z,100860.66
2018-03-15T05:42:46.921Z,100871.08
2018-03-15T05:45:50.260Z,100874.67
2018-03-15T05:48:53.622Z,100871.05
2018-03-15T05:51:57.786Z,100883.55
2018-03-15T05:55:01.168Z,100880.74
2018-03-15T05:58:04.546Z,100871.45
2018-03-15T06:01:08.746Z,100885.22
2018-03-15T06:04:12.120Z,100886.78
2018-03-15T06:07:15.466Z,100887.59
2018-03-15T06:10:19.617Z,100885.94
2018-03-15T06:13:22.989Z,100869.20
2018-03-15T06:16:26.337Z,100874.92
2018-03-15T06:19:29.683Z,100894.75
2018-03-15T06:22:33.914Z,100890.87
2018-03-15T06:25:37.295Z,100882.27
2018-03-15T06:28:41.465Z,100889.62
2018-03-15T06:31:44.816Z,100884.06
2018-03-15T06:34:48.187Z,100886.70
2018-03-15T06:37:51.546Z,100894.75
2018-03-15T06:40:54.890Z,100892.28
2018-03-15T06:43:58.307Z,100890.36
2018-03-15T06:47:02.431Z,100907.02
2018-03-15T06:50:05.817Z,100909.95
2018-03-15T06:53:10.004Z,100893.09
2018-03-15T06:56:13.344Z,100897.56
2018-03-15T06:59:17.482Z,100899.28
2018-03-15T07:02:20.838Z,100901.98
2018-03-15T07:05:24.987Z,100901.03
2018-03-15T07:08:28.341Z,100910.86
2018-03-15T07:11:32.519Z,100906.44
2018-03-15T07:14:35.926Z,100901.13
2018-03-15T07:17:39.309Z,100913.55
2018-03-15T07:20:42.874Z,100912.64
2018-03-15T07:23:46.221Z,100911.77
2018-03-15T07:26:49.570Z,100917.38
2018-03-15T07:29:52.929Z,100915.98
2018-03-15T07:32:56.306Z,100914.82
2018-03-15T07:35:59.657Z,100922.53
2018-03-15T07:39:04.602Z,100934.64
2018-03-15T07:42:07.963Z,100922.80
2018-03-15T07:45:11.346Z,100925.81
2018-03-15T07:48:14.779Z,100935.80
2018-03-15T07:51:18.129Z,100932.45
2018-03-15T07:54:21.522Z,100937.79
2018-03-15T07:57:24.871Z,100929.83
2018-03-15T08:00:28.234Z,100930.89
2018-03-15T08:03:31.601Z,100922.39
2018-03-15T08:06:35.865Z,100933.89
2018-03-15T08:09:39.237Z,100933.39
2018-03-15T08:12:43.415Z,100923.62
2018-03-15T08:15:46.764Z,100918.33
2018-03-15T08:18:50.224Z,100917.94
2018-03-15T08:21:54.342Z,100916.22
2018-03-15T08:24:59.199Z,100914.78
2018-03-15T08:28:03.344Z,100915.70
2018-03-15T08:31:06.915Z,100906.72
2018-03-15T08:34:11.217Z,100901.83
2018-03-15T08:37:15.345Z,100899.50
2018-03-15T08:40:19.463Z,100892.28
2018-03-15T08:43:23.600Z,100889.94
2018-03-15T08:46:26.996Z,100891.37
2018-03-15T08:49:31.113Z,100896.30
2018-03-15T08:52:34.473Z,100894.70
2018-03-15T08:55:39.347Z,100886.09
2018-03-15T08:58:42.702Z,100896.80
2018-03-15T09:01:46.848Z,100880.12
2018-03-15T09:04:50.368Z,100901.02
2018-03-15T09:07:53.721Z,100889.38
2018-03-15T09:10:57.086Z,100887.12
2018-03-15T09:14:01.566Z,100885.51
2018-03-15T09:17:05.720Z,100887.73
2018-03-15T09:20:09.913Z,100885.28
2018-03-15T09:23:14.034Z,100884.86
2018-03-15T09:26:18.163Z,100887.78
2018-03-15T09:29:21.556Z,100893.00
2018-03-15T09:32:24.914Z,100884.00
2018-03-15T09:35:28.288Z,100887.42
2018-03-15T09:38:31.716Z,100874.04
2018-03-15T09:41:35.154Z,100874.54
2018-03-15T09:44:38.574Z,100878.69
2018-03-15T09:47:42.069Z,100881.84
2018-03-15T09:50:45.576Z,100876.52
2018-03-15T09:53:49.161Z,100877.96
2018-03-15T09:56:52.575Z,100870.14
2018-03-15T09:59:55.953Z,100867.05
2018-03-15T10:02:59.330Z,100859.70
2018-03-15T10:06:02.710Z,100880.53
2018-03-15T10:09:06.917Z,100857.26
2018-03-15T10:12:10.296Z,100873.03
2018-03-15T10:15:17.598Z,100872.67
2018-03-15T10:18:20.987Z,100877.20
2018-03-15T10:21:24.385Z,100883.38
2018-03-15T10:24:27.770Z,100881.81
2018-03-15T10:27:31.153Z,100875.64
2018-03-15T10:30:34.565Z,100884.40
2018-03-15T10:33:38.194Z,100885.65
2018-03-15T10:36:41.597Z,100888.70
2018-03-15T10:39:44.973Z,100873.46
2018-03-15T10:42:48.377Z,100868.40
2018-03-15T10:45:51.778Z,100883.65
2018-03-15T10:48:55.147Z,100865.75
2018-03-15T10:51:59.306Z,100864.64
2018-03-15T10:55:02.678Z,100866.64
2018-03-15T10:58:06.031Z,100872.00
2018-03-15T11:01:25.933Z,100867.09
2018-03-15T11:04:34.278Z,100858.02
2018-03-15T11:07:40.547Z,100884.97
2018-03-15T11:10:43.944Z,100879.27
2018-03-15T11:13:47.312Z,100870.45
2018-03-15T11:16:50.863Z,100866.53
2018-03-15T11:19:54.235Z,100875.48
2018-03-15T11:22:57.613Z,100870.73
2018-03-15T11:26:00.996Z,100863.98
2018-03-15T11:29:05.186Z,100872.78
2018-03-15T11:32:08.558Z,100859.94
2018-03-15T11:35:12.080Z,100849.97
2018-03-15T11:38:15.480Z,100849.92
2018-03-15T11:41:18.823Z,100849.27
2018-03-15T11:44:22.986Z,100857.70
2018-03-15T11:47:26.361Z,100852.58
2018-03-15T11:50:30.635Z,100846.77
2018-03-15T11:53:34.390Z,100849.33
2018-03-15T11:56:38.542Z,100849.20
2018-03-15T11:59:41.990Z,100850.37
2018-03-15T12:02:46.109Z,100850.16
2018-03-15T12:05:49.499Z,100855.84
2018-03-15T12:08:54.417Z,100848.36
2018-03-15T12:11:57.819Z,100839.83
2018-03-15T12:15:01.210Z,100826.59
2018-03-15T12:18:04.754Z,100829.57
2018-03-15T12:21:08.138Z,100818.99
2018-03-15T12:24:11.493Z,100806.54
2018-03-15T12:27:14.841Z,100822.34
2018-03-15T12:30:18.962Z,100804.53
2018-03-15T12:33:23.842Z,100795.33
2018-03-15T12:36:27.202Z,100791.58
2018-03-15T12:39:30.597Z,100807.91
2018-03-15T12:42:33.979Z,100794.89
2018-03-15T12:45:38.155Z,100791.31
2018-03-15T12:48:41.506Z,100795.48
2018-03-15T12:51:44.947Z,100779.75
2018-03-15T12:54:48.319Z,100785.31
2018-03-15T12:57:52.435Z,100776.69
2018-03-15T13:00:55.834Z,100777.64
2018-03-15T13:03:59.182Z,100760.57
2018-03-15T13:07:02.577Z,100768.84
2018-03-15T13:10:05.950Z,100760.66
2018-03-15T13:13:10.154Z,100763.05
2018-03-15T13:16:14.273Z,100764.22
2018-03-15T13:19:17.648Z,100775.27
2018-03-15T13:22:22.509Z,100779.34
2018-03-15T13:25:26.631Z,100759.83
2018-03-15T13:28:30.745Z,100754.58
2018-03-15T13:31:35.058Z,100754.23
2018-03-15T13:34:38.519Z,100755.20
2018-03-15T13:37:41.897Z,100764.92
2018-03-15T13:40:45.254Z,100732.42
2018-03-15T13:43:48.654Z,100773.98
2018-03-15T13:46:51.999Z,100743.25
2018-03-15T13:49:55.344Z,100749.16
2018-03-15T13:52:58.697Z,100746.61
2018-03-15T13:56:02.184Z,100752.14
2018-03-15T13:59:05.549Z,100740.19
2018-03-15T14:02:08.918Z,100726.08
2018-03-15T14:05:12.290Z,100736.20
2018-03-15T14:08:15.662Z,100726.62
2018-03-15T14:11:19.846Z,100739.02
2018-03-15T14:14:23.263Z,100715.40
2018-03-15T14:17:26.640Z,100712.94
2018-03-15T14:20:30.002Z,100707.48
2018-03-15T14:23:33.369Z,100713.60
2018-03-15T14:26:37.497Z,100707.30
2018-03-15T14:29:41.707Z,100700.63
2018-03-15T14:32:45.092Z,100702.29
2018-03-15T14:35:48.438Z,100699.49
2018-03-15T14:38:51.872Z,100683.41
2018-03-15T14:41:56.781Z,100684.16
2018-03-15T14:45:00.146Z,100678.00
2018-03-15T14:48:04.342Z,100665.17
2018-03-15T14:51:07.715Z,100672.13
2018-03-15T14:54:11.274Z,100663.14
2018-03-15T14:57:14.882Z,100671.76
2018-03-15T15:00:18.242Z,100675.15
2018-03-15T15:03:21.617Z,100685.52
2018-03-15T15:06:24.985Z,100681.00
2018-03-15T15:09:28.346Z,100682.21
2018-03-15T15:12:31.751Z,100673.27
2018-03-15T15:15:35.130Z,100681.44
2018-03-15T15:18:40.052Z,100667.48
2018-03-15T15:21:43.431Z,100653.67
2018-03-15T15:24:46.905Z,100644.22
2018-03-15T15:27:51.108Z,100647.39
2018-03-15T15:30:55.221Z,100658.10
2018-03-15T15:33:59.379Z,100659.06
2018-03-15T15:37:03.467Z,100653.67
2018-03-15T15:40:07.628Z,100656.44
2018-03-15T15:43:11.051Z,100662.45
2018-03-15T15:46:14.461Z,100669.08
2018-03-15T15:49:18.570Z,100663.48
2018-03-15T15:52:21.917Z,100673.86
2018-03-15T15:55:25.546Z,100673.47
2018-03-15T15:58:28.928Z,100695.72
2018-03-15T16:01:32.338Z,100681.91
2018-03-15T16:04:35.749Z,100667.60
2018-03-15T16:07:39.093Z,100677.81
2018-03-15T16:10:43.313Z,100686.08
2018-03-15T16:13:47.459Z,100664.63
2018-03-15T16:16:50.850Z,100679.48
2018-03-15T16:19:54.314Z,100671.59
2018-03-15T16:22:59.194Z,100667.09
2018-03-15T16:26:02.654Z,100669.70
2018-03-15T16:29:06.046Z,100656.45
2018-03-15T16:32:10.184Z,100667.61
2018-03-15T16:35:14.317Z,100670.13
2018-03-15T16:38:17.735Z,100672.05
2018-03-15T16:41:21.145Z,100663.71
2018-03-15T16:44:24.527Z,100676.04
2018-03-15T16:47:27.889Z,100675.31
2018-03-15T16:50:31.330Z,100670.19
2018-03-15T16:53:34.693Z,100688.92
2018-03-15T16:56:38.825Z,100691.45
2018-03-15T16:59:42.981Z,100695.36
2018-03-15T17:02:46.365Z,100701.73
2018-03-15T17:05:49.755Z,100713.12
2018-03-15T17:08:53.158Z,100725.73
2018-03-15T17:11:56.623Z,100720.02
2018-03-15T17:14:59.999Z,100725.89
2018-03-15T17:18:03.356Z,100726.36
2018-03-15T17:21:06.918Z,100740.21
2018-03-15T17:24:10.299Z,100738.30
2018-03-15T17:27:13.768Z,100752.51
2018-03-15T17:30:17.355Z,100747.35
2018-03-15T17:33:20.727Z,100749.13
2018-03-15T17:36:24.135Z,100770.31
2018-03-15T17:39:28.292Z,100760.33
2018-03-15T17:42:31.694Z,100756.32
2018-03-15T17:45:35.061Z,100766.52
2018-03-15T17:48:39.253Z,100762.13
2018-03-15T17:51:42.613Z,100747.91
2018-03-15T17:54:46.034Z,100762.41
2018-03-15T17:57:49.406Z,100747.05
2018-03-15T18:00:52.769Z,100762.69
2018-03-15T18:03:56.966Z,100766.66
2018-03-15T18:07:01.885Z,100764.84
2018-03-15T18:10:05.342Z,100783.19
2018-03-15T18:13:08.706Z,100783.88
2018-03-15T18:16:12.982Z,100787.62
2018-03-15T18:19:16.335Z,100792.63
2018-03-15T18:22:19.748Z,100790.16
2018-03-15T18:25:23.897Z,100776.25
2018-03-15T18:28:27.283Z,100792.03
2018-03-15T18:31:30.663Z,100794.41
2018-03-15T18:34:34.789Z,100774.50
2018-03-15T18:37:38.184Z,100793.10
2018-03-15T18:40:42.357Z,100802.85
2018-03-15T18:43:45.727Z,100804.20
2018-03-15T18:46:49.123Z,100800.70
2018-03-15T18:49:52.491Z,100798.56
2018-03-15T18:52:56.619Z,100802.44
2018-03-15T18:56:00.008Z,100806.00
2018-03-15T18:59:04.173Z,100795.59
2018-03-15T19:02:07.748Z,100791.31
2018-03-15T19:05:11.131Z,100801.10
2018-03-15T19:08:15.306Z,100793.53
2018-03-15T19:11:18.695Z,100807.38
2018-03-15T19:14:22.143Z,100813.95
2018-03-15T19:17:26.300Z,100803.25
2018-03-15T19:20:29.690Z,100806.95
2018-03-15T19:23:33.063Z,100820.20
2018-03-15T19:26:37.211Z,100824.91
2018-03-15T19:29:40.648Z,100814.79
2018-03-15T19:32:44.036Z,100817.07
2018-03-15T19:35:47.496Z,100836.66
2018-03-15T19:38:51.004Z,100827.04
2018-03-15T19:41:54.467Z,100827.13
2018-03-15T19:44:57.873Z,100822.28
2018-03-15T19:48:02.019Z,100835.40
2018-03-15T19:51:05.426Z,100827.41
2018-03-15T19:54:08.830Z,100836.50
2018-03-15T19:57:12.199Z,100813.88
2018-03-15T20:00:16.347Z,100822.17
2018-03-15T20:03:19.762Z,100846.90
2018-03-15T20:06:23.127Z,100831.11
2018-03-15T20:09:26.535Z,100821.93
2018-03-15T20:12:30.650Z,100829.98
2018-03-15T20:15:39.502Z,100831.47
2018-03-15T20:18:42.879Z,100821.22
2018-03-15T20:21:46.295Z,100827.23
2018-03-15T20:24:49.652Z,100815.45
2018-03-15T20:27:59.254Z,100828.92
2018-03-15T20:31:02.613Z,100824.93
2018-03-15T20:34:08.926Z,100831.83
2018-03-15T20:37:12.496Z,100843.05
2018-03-15T20:40:21.484Z,100842.80
2018-03-15T20:43:24.882Z,100831.66
2018-03-15T20:50:03.159Z,100815.34
2018-03-15T20:53:06.539Z,100833.70
2018-03-15T20:56:10.667Z,100834.41
2018-03-15T20:59:14.828Z,100829.16
2018-03-15T21:02:18.215Z,100823.56
2018-03-15T21:05:21.626Z,100831.66
2018-03-15T21:08:25.003Z,100831.48
2018-03-15T21:11:28.376Z,100820.45
2018-03-15T21:14:32.508Z,100826.12
2018-03-15T21:17:35.893Z,100823.03
2018-03-15T21:20:39.271Z,100809.66
2018-03-15T21:23:42.631Z,100825.84
2018-03-15T21:26:46.073Z,100827.42
2018-03-15T21:29:49.389Z,100809.54
2018-03-15T21:32:53.534Z,100795.67
2018-03-15T21:35:56.980Z,100800.08
2018-03-15T21:39:00.361Z,100813.58
2018-03-15T21:42:03.742Z,100812.72
2018-03-15T21:45:07.120Z,100811.05
2018-03-15T21:48:10.514Z,100829.59
2018-03-15T21:51:13.899Z,100827.66
2018-03-15T21:54:18.038Z,100812.51
2018-03-15T21:57:22.101Z,100825.05
2018-03-15T22:00:26.986Z,100818.45
2018-03-15T22:03:30.347Z,100829.30
2018-03-15T22:06:35.268Z,100831.52
2018-03-15T22:09:38.647Z,100835.94
2018-03-15T22:12:42.020Z,100837.64
2018-03-15T22:15:45.389Z,100821.63
2018-03-15T22:18:48.742Z,100837.70
2018-03-15T22:21:52.099Z,100846.17
2018-03-15T22:24:56.225Z,100848.77
2018-03-15T22:27:59.725Z,100855.54
2018-03-15T22:31:03.088Z,100865.16
2018-03-15T22:34:07.430Z,100858.94
2018-03-15T22:37:11.818Z,100863.58
2018-03-15T22:40:15.190Z,100856.10
2018-03-15T22:43:18.548Z,100866.34
2018-03-15T22:46:22.691Z,100867.26
2018-03-15T22:49:26.083Z,100856.34
2018-03-15T22:52:29.458Z,100860.18
2018-03-15T22:55:32.809Z,100869.20
2018-03-15T22:58:36.184Z,100855.67
2018-03-15T23:01:39.545Z,100854.12
2018-03-15T23:04:44.415Z,100848.16
2018-03-15T23:07:47.775Z,100863.66
2018-03-15T23:10:52.633Z,100855.20
2018-03-15T23:13:56.767Z,100859.95
2018-03-15T23:17:00.208Z,100851.30
2018-03-15T23:20:03.567Z,100863.73
2018-03-15T23:23:06.930Z,100855.81
2018-03-15T23:26:11.200Z,100846.28
2018-03-15T23:29:14.571Z,100848.41
2018-03-15T23:32:18.690Z,100856.22
2018-03-15T23:35:22.830Z,100849.78
2018-03-15T23:38:26.174Z,100852.01
2018-03-15T23:41:29.548Z,100851.88
2018-03-15T23:44:32.890Z,100840.87
2018-03-15T23:47:37.017Z,100853.05
2018-03-15T23:50:41.157Z,100852.11
2018-03-15T23:53:44.528Z,100839.72
2018-03-15T23:56:48.642Z,100836.82
2018-03-15T23:59:52.767Z,100846.32
